UNNTUNKL

Guest
Details From UNNT - Novosibirsk Tolmachevo
To UNKL - YEMELYANOVO
Flight Number -
Tags decoded
Created
Modified
Stats Distance 346 nm / 640 km
Max Altitude 0 ft / 0 m
Waypoints 4
Social Downloads 3
Likes 0
Share VATSIM

Download

Looking for another format? Having issues loading an existing format? Contact us
Advertisement - Login to hide

Notes

Requested: UNNT ODIDA B926 KESED A309 ROTLI A300 RANET UNKL Unmatched points: ODIDA B926 A309 ROTLI A300

Route

UNNT KESED RANET UNKL

ID Type Via Altitude Latitude Longitude Leg Dist Tot Dist Heading (true) Name
O UNNT APT - 0 ft / 0 m 55.01302˚ 82.65107˚ - 0 nm - Novosibirsk Tolmachevo
KESED FIX - 0 ft / 0 m 55.27056˚ 86.10778˚ 119 nm 119 nm 81° / 84° -
RANET FIX - 0 ft / 0 m 56.28389˚ 91.13306˚ 180 nm 299 nm 68° / 72° -
O UNKL APT - 0 ft / 0 m 56.17295˚ 92.49328˚ 45 nm 345 nm 98° / 99° YEMELYANOVO

Altitude Profile

Advertisement - Login to hide

Weather


0- 5 10 15 20 25 30 35+ Temperature / ° C

Clouds and Precipitation
Forecast for 2017-12-11 00:00 UTC. Updated an hour ago

Ground ~20,000 ft ~40,000 ft Winds

UNNT

Details ICAO UNNT (OVB)
Name Novosibirsk Tolmachevo
Region Russia
Timezone Asia/Novosibirsk (UTC+7.0)
Stats Elevation 365 ft / 111 m (AMSL)
Location 55.013017° 82.651065°
Runways 2
Magnetic Variation 8.864° E

METAR

UNNT 110000Z 16005MPS CAVOK M08/M11 Q1026 R25/490150 R34/490150 NOSIG RMK QFE759/1013

Decode

TAF

TAF UNNT 102300Z 1100/1124 18006G12MPS 9999 DRSN BKN030 BECMG 1102/1104 14003G08MPS TEMPO 1115/1124 3100 -SHSN BKN011CB

Decode

Departure Runways

ID Width Length Bearing (true) Bearing (mag) Surface Threshold Offset Overrun Length
07 190 ft / 58 m 11,817 ft / 3,602 m 81.00° 72.14° Asphalt 0 ft / 0 m 250 ft / 76 m
07L 304 ft / 93 m 9,877 ft / 3,011 m 81.01° 72.15° Grass 0 ft / 0 m 0 ft / 0 m
25 190 ft / 58 m 11,817 ft / 3,602 m 261.04° 252.18° Asphalt 0 ft / 0 m 225 ft / 69 m
25R 304 ft / 93 m 9,877 ft / 3,011 m 261.05° 252.19° Grass 0 ft / 0 m 0 ft / 0 m

UNKL

Details ICAO UNKL (KJA)
Name YEMELYANOVO
Region Russia
Timezone Asia/Krasnoyarsk (UTC+7.0)
Stats Elevation 942 ft / 287 m (AMSL)
Location 56.172946° 92.493276°
Runways 1
Magnetic Variation 4.123° E

METAR

UNKL 110000Z 00000MPS 9000 NSC M22/M24 Q1026 R29/CLRD65 NOSIG RMK QFE744

Decode

TAF

TAF UNKL 102300Z 1100/1124 VRB01MPS 3500 BR NSC TEMPO 1100/1105 1000 BR SCT002 FM110600 25003G08MPS 5000 -SHSN SCT016CB TEMPO 1106/1121 2000 SHSN BKN015CB

Decode

Destination Runways

ID Width Length Bearing (true) Bearing (mag) Surface Threshold Offset Overrun Length
11 197 ft / 60 m 12,113 ft / 3,692 m 113.16° 109.04° Asphalt 0 ft / 0 m 235 ft / 72 m
29 197 ft / 60 m 12,113 ft / 3,692 m 293.21° 289.09° Asphalt 0 ft / 0 m 215 ft / 66 m

Popular Alternatives